createdAt,value
2023-09-27T00:00:57.990Z,78.50
2023-09-27T00:01:57.994Z,77.71
2023-09-27T00:02:57.995Z,77.85
2023-09-27T00:03:57.923Z,77.58
2023-09-27T00:04:57.967Z,77.67
2023-09-27T00:05:57.927Z,77.98
2023-09-27T00:06:57.880Z,78.05
2023-09-27T00:07:57.937Z,78.22
2023-09-27T00:08:57.840Z,78.27
2023-09-27T00:09:57.820Z,78.37
2023-09-27T00:10:57.854Z,78.28
2023-09-27T00:11:57.804Z,78.04
2023-09-27T00:12:57.787Z,78.22
2023-09-27T00:13:57.800Z,78.30
2023-09-27T00:14:57.769Z,78.38
2023-09-27T00:15:57.768Z,78.60
2023-09-27T00:16:57.830Z,78.62
2023-09-27T00:17:57.782Z,78.19
2023-09-27T00:18:57.851Z,78.39
2023-09-27T00:19:57.745Z,78.19
2023-09-27T00:20:57.710Z,78.02
2023-09-27T00:21:57.678Z,77.38
2023-09-27T00:22:57.724Z,77.15
2023-09-27T00:23:57.691Z,77.28
2023-09-27T00:24:57.645Z,77.46
2023-09-27T00:25:57.719Z,77.49
2023-09-27T00:26:57.615Z,77.14
2023-09-27T00:27:57.631Z,77.21
2023-09-27T00:28:57.609Z,77.46
2023-09-27T00:29:57.565Z,77.83
2023-09-27T00:30:57.581Z,77.73
2023-09-27T00:31:57.618Z,77.38
2023-09-27T00:32:57.616Z,77.27
2023-09-27T00:33:57.516Z,77.60
2023-09-27T00:34:57.531Z,77.89
2023-09-27T00:35:57.499Z,77.06
2023-09-27T00:36:57.501Z,77.38
2023-09-27T00:37:57.494Z,77.52
2023-09-27T00:38:57.450Z,77.27
2023-09-27T00:39:57.442Z,77.25
2023-09-27T00:40:57.460Z,77.21
2023-09-27T00:41:57.410Z,77.04
2023-09-27T00:42:57.425Z,77.41
2023-09-27T00:43:57.448Z,77.26
2023-09-27T00:44:57.378Z,77.53
2023-09-27T00:45:57.425Z,77.89
2023-09-27T00:46:57.423Z,77.94
2023-09-27T00:47:57.367Z,78.25
2023-09-27T00:48:57.343Z,77.95
2023-09-27T00:49:57.360Z,78.00
2023-09-27T00:50:57.314Z,78.13
2023-09-27T00:51:57.305Z,78.02
2023-09-27T00:52:57.299Z,78.16
2023-09-27T00:53:57.274Z,78.04
2023-09-27T00:54:57.262Z,78.06
2023-09-27T00:55:57.293Z,77.81
2023-09-27T00:56:57.231Z,78.15
2023-09-27T00:57:57.209Z,78.31
2023-09-27T00:58:57.242Z,78.13
2023-09-27T00:59:57.197Z,78.56
2023-09-27T01:00:57.193Z,78.54
2023-09-27T01:01:57.233Z,78.41
2023-09-27T01:02:57.314Z,78.67
2023-09-27T01:03:57.143Z,78.82
2023-09-27T01:04:57.163Z,78.52
2023-09-27T01:05:57.172Z,78.74
2023-09-27T01:06:57.105Z,78.74
2023-09-27T01:07:57.148Z,78.57
2023-09-27T01:08:57.097Z,78.63
2023-09-27T01:09:57.047Z,78.13
2023-09-27T01:10:57.094Z,78.18
2023-09-27T01:11:57.060Z,77.99
2023-09-27T01:12:57.162Z,77.95
2023-09-27T01:13:57.015Z,78.13
2023-09-27T01:14:56.998Z,78.04
2023-09-27T01:15:56.996Z,77.79
2023-09-27T01:16:56.980Z,77.82
2023-09-27T01:17:57.009Z,77.81
2023-09-27T01:18:57.162Z,77.76
2023-09-27T01:19:56.935Z,77.72
2023-09-27T01:20:56.927Z,77.73
2023-09-27T01:21:56.914Z,77.66
2023-09-27T01:22:56.968Z,77.60
2023-09-27T01:23:56.866Z,77.69
2023-09-27T01:24:56.857Z,77.76
2023-09-27T01:25:56.881Z,78.12
2023-09-27T01:26:56.843Z,78.02
2023-09-27T01:27:56.815Z,78.11
2023-09-27T01:28:56.972Z,78.32
2023-09-27T01:29:56.809Z,78.54
2023-09-27T01:30:56.784Z,78.21
2023-09-27T01:31:56.914Z,78.30
2023-09-27T01:32:56.812Z,78.29
2023-09-27T01:33:56.740Z,78.21
2023-09-27T01:34:56.754Z,77.99
2023-09-27T01:35:56.722Z,78.25
2023-09-27T01:36:56.720Z,78.14
2023-09-27T01:37:56.752Z,78.30
2023-09-27T01:38:56.734Z,77.61
2023-09-27T01:39:56.671Z,77.37
2023-09-27T01:40:56.701Z,77.36
2023-09-27T01:41:56.640Z,77.28
2023-09-27T01:42:56.634Z,77.31
2023-09-27T01:43:56.656Z,77.14
2023-09-27T01:44:56.601Z,77.15
2023-09-27T01:45:56.643Z,77.28
2023-09-27T01:46:56.625Z,77.31
2023-09-27T01:47:56.642Z,77.45
2023-09-27T01:48:56.548Z,77.51
2023-09-27T01:49:56.590Z,77.47
2023-09-27T01:50:56.534Z,77.49
2023-09-27T01:51:56.513Z,77.33
2023-09-27T01:52:56.532Z,77.26
2023-09-27T01:53:56.492Z,77.13
2023-09-27T01:54:56.497Z,77.51
2023-09-27T01:55:56.492Z,77.19
2023-09-27T01:56:56.465Z,77.04
2023-09-27T01:57:56.452Z,77.60
2023-09-27T01:58:56.451Z,77.22
2023-09-27T01:59:56.406Z,77.03
2023-09-27T02:00:56.398Z,77.05
2023-09-27T02:01:56.508Z,77.30
2023-09-27T02:02:56.462Z,77.18
2023-09-27T02:03:56.401Z,77.47
2023-09-27T02:04:56.396Z,77.25
2023-09-27T02:05:56.372Z,77.18
2023-09-27T02:06:56.306Z,77.36
2023-09-27T02:07:56.381Z,77.13
2023-09-27T02:08:56.386Z,77.13
2023-09-27T02:09:56.275Z,76.62
2023-09-27T02:10:56.286Z,76.89
2023-09-27T02:11:56.277Z,76.73
2023-09-27T02:12:56.242Z,77.30
2023-09-27T02:13:56.261Z,77.30
2023-09-27T02:14:56.203Z,77.52
2023-09-27T02:15:56.255Z,77.29
2023-09-27T02:16:56.179Z,77.36
2023-09-27T02:17:56.207Z,77.43
2023-09-27T02:18:56.139Z,77.64
2023-09-27T02:19:56.216Z,77.74
2023-09-27T02:20:56.118Z,77.62
2023-09-27T02:21:56.105Z,76.67
2023-09-27T02:22:56.230Z,76.42
2023-09-27T02:23:56.094Z,76.92
2023-09-27T02:24:56.075Z,77.07
2023-09-27T02:25:56.106Z,77.19
2023-09-27T02:26:56.029Z,77.19
2023-09-27T02:27:56.052Z,77.33
2023-09-27T02:28:56.503Z,77.48
2023-09-27T02:29:56.004Z,77.94
2023-09-27T02:30:56.080Z,77.69
2023-09-27T02:31:56.046Z,77.37
2023-09-27T02:32:56.022Z,77.11
2023-09-27T02:33:55.951Z,76.95
2023-09-27T02:34:55.943Z,76.76
2023-09-27T02:35:55.939Z,76.79
2023-09-27T02:36:55.915Z,76.74
2023-09-27T02:37:55.936Z,76.82
2023-09-27T02:38:55.887Z,77.02
2023-09-27T02:39:55.877Z,77.32
2023-09-27T02:40:55.880Z,77.21
2023-09-27T02:41:55.851Z,77.11
2023-09-27T02:42:55.855Z,77.41
2023-09-27T02:43:55.842Z,77.54
2023-09-27T02:44:55.800Z,77.83
2023-09-27T02:45:55.872Z,77.45
2023-09-27T02:46:55.789Z,76.82
2023-09-27T02:47:55.872Z,77.01
2023-09-27T02:48:55.902Z,77.03
2023-09-27T02:49:55.804Z,77.26
2023-09-27T02:50:55.713Z,77.11
2023-09-27T02:51:55.721Z,77.11
2023-09-27T02:52:55.746Z,77.04
2023-09-27T02:53:55.716Z,76.87
2023-09-27T02:54:55.660Z,76.78
2023-09-27T02:55:55.668Z,76.87
2023-09-27T02:56:55.633Z,76.87
2023-09-27T02:57:56.482Z,76.79
2023-09-27T02:58:55.714Z,76.83
2023-09-27T02:59:55.597Z,76.90
2023-09-27T03:00:55.657Z,77.03
2023-09-27T03:01:55.642Z,76.94
2023-09-27T03:02:55.639Z,76.89
2023-09-27T03:03:55.643Z,76.68
2023-09-27T03:04:55.569Z,76.63
2023-09-27T03:05:55.543Z,76.81
2023-09-27T03:06:55.516Z,76.86
2023-09-27T03:07:55.588Z,76.90
2023-09-27T03:08:55.551Z,76.95
2023-09-27T03:09:55.470Z,77.44
2023-09-27T03:10:55.489Z,77.53
2023-09-27T03:11:55.458Z,77.33
2023-09-27T03:12:55.450Z,77.18
2023-09-27T03:13:55.530Z,77.24
2023-09-27T03:14:55.414Z,77.24
2023-09-27T03:15:55.431Z,77.16
2023-09-27T03:16:55.443Z,77.15
2023-09-27T03:17:55.401Z,76.93
2023-09-27T03:18:55.657Z,76.93
2023-09-27T03:19:55.378Z,77.01
2023-09-27T03:20:55.332Z,76.90
2023-09-27T03:21:55.325Z,76.97
2023-09-27T03:22:55.337Z,76.96
2023-09-27T03:23:55.317Z,76.94
2023-09-27T03:24:55.268Z,76.82
2023-09-27T03:25:55.286Z,76.88
2023-09-27T03:26:55.248Z,76.90
2023-09-27T03:27:55.250Z,76.86
2023-09-27T03:28:55.450Z,76.70
2023-09-27T03:29:55.224Z,76.89
2023-09-27T03:30:55.185Z,77.02
2023-09-27T03:31:55.259Z,77.00
2023-09-27T03:32:55.270Z,76.91
2023-09-27T03:33:55.148Z,76.99
2023-09-27T03:34:55.189Z,76.92
2023-09-27T03:35:55.154Z,77.13
2023-09-27T03:36:55.096Z,76.85
2023-09-27T03:37:55.141Z,76.88
2023-09-27T03:38:55.176Z,76.88
2023-09-27T03:39:55.076Z,76.90
2023-09-27T03:40:55.077Z,76.90
2023-09-27T03:41:55.047Z,76.82
2023-09-27T03:42:55.012Z,76.90
2023-09-27T03:43:55.032Z,76.90
2023-09-27T03:44:55.016Z,76.99
2023-09-27T03:45:54.998Z,77.11
2023-09-27T03:46:55.063Z,77.15
2023-09-27T03:47:55.092Z,77.23
2023-09-27T03:48:55.204Z,77.23
2023-09-27T03:49:54.997Z,77.29
2023-09-27T03:50:54.916Z,77.22
2023-09-27T03:51:54.924Z,77.13
2023-09-27T03:52:54.972Z,77.30
2023-09-27T03:53:54.875Z,77.34
2023-09-27T03:54:54.883Z,77.23
2023-09-27T03:55:54.884Z,77.20
2023-09-27T03:56:54.838Z,77.19
2023-09-27T03:57:54.913Z,77.24
2023-09-27T03:58:54.972Z,77.25
2023-09-27T03:59:54.804Z,77.24
2023-09-27T04:00:54.782Z,77.25
2023-09-27T04:01:54.824Z,77.12
2023-09-27T04:02:54.932Z,77.22
2023-09-27T04:03:54.856Z,77.08
2023-09-27T04:04:54.840Z,77.20
2023-09-27T04:05:54.708Z,76.99
2023-09-27T04:06:54.719Z,76.72
2023-09-27T04:07:54.708Z,76.65
2023-09-27T04:08:54.869Z,76.51
2023-09-27T04:09:54.670Z,76.55
2023-09-27T04:10:54.667Z,76.57
2023-09-27T04:11:54.660Z,76.55
2023-09-27T04:12:54.617Z,76.71
2023-09-27T04:13:54.657Z,76.72
2023-09-27T04:14:54.609Z,76.70
2023-09-27T04:15:54.658Z,76.80
2023-09-27T04:16:54.585Z,76.98
2023-09-27T04:17:54.573Z,76.92
2023-09-27T04:18:54.898Z,76.96
2023-09-27T04:19:54.549Z,77.06
2023-09-27T04:20:54.541Z,77.16
2023-09-27T04:21:54.532Z,77.05
2023-09-27T04:22:54.484Z,77.13
2023-09-27T04:23:54.479Z,77.32
2023-09-27T04:24:54.482Z,77.30
2023-09-27T04:25:54.460Z,77.28
2023-09-27T04:26:54.453Z,77.21
2023-09-27T04:27:54.431Z,77.26
2023-09-27T04:28:54.574Z,77.47
2023-09-27T04:29:54.403Z,77.59
2023-09-27T04:30:54.403Z,77.54
2023-09-27T04:31:54.372Z,77.46
2023-09-27T04:32:54.392Z,77.50
2023-09-27T04:33:54.353Z,77.34
2023-09-27T04:35:01.085Z,77.40
2023-09-27T04:35:54.342Z,77.29
2023-09-27T04:36:54.303Z,77.22
2023-09-27T04:37:54.353Z,77.28
2023-09-27T04:38:54.385Z,76.68
2023-09-27T04:39:54.293Z,76.85
2023-09-27T04:40:54.278Z,76.98
2023-09-27T04:41:54.222Z,76.69
2023-09-27T04:42:54.193Z,76.82
2023-09-27T04:43:54.250Z,76.74
2023-09-27T04:44:54.274Z,77.07
2023-09-27T04:45:54.315Z,77.24
2023-09-27T04:46:54.150Z,77.21
2023-09-27T04:47:54.198Z,77.25
2023-09-27T04:48:54.338Z,77.33
2023-09-27T04:49:54.120Z,77.57
2023-09-27T04:50:54.139Z,77.53
2023-09-27T04:51:54.091Z,77.64
2023-09-27T04:52:54.074Z,77.64
2023-09-27T04:53:54.092Z,77.67
2023-09-27T04:54:54.052Z,77.61
2023-09-27T04:55:54.068Z,77.66
2023-09-27T04:56:54.033Z,77.75
2023-09-27T04:57:54.058Z,77.88
2023-09-27T04:58:54.117Z,78.01
2023-09-27T04:59:54.007Z,78.07
2023-09-27T05:00:54.045Z,78.11
2023-09-27T05:01:53.950Z,78.12
2023-09-27T05:02:54.013Z,78.09
2023-09-27T05:03:53.930Z,77.99
2023-09-27T05:04:53.912Z,77.90
2023-09-27T05:05:53.926Z,77.58
2023-09-27T05:06:53.869Z,77.56
2023-09-27T05:07:53.943Z,77.58
2023-09-27T05:08:54.127Z,77.78
2023-09-27T05:09:53.848Z,77.87
2023-09-27T05:10:53.887Z,77.82
2023-09-27T05:11:54.436Z,77.96
2023-09-27T05:12:53.804Z,77.92
2023-09-27T05:13:53.773Z,77.90
2023-09-27T05:14:53.763Z,77.80
2023-09-27T05:15:53.914Z,77.83
2023-09-27T05:16:53.748Z,78.04
2023-09-27T05:17:53.738Z,77.93
2023-09-27T05:18:53.830Z,77.87
2023-09-27T05:19:53.700Z,77.88
2023-09-27T05:20:53.682Z,77.94
2023-09-27T05:21:53.675Z,77.85
2023-09-27T05:22:53.666Z,77.81
2023-09-27T05:23:53.628Z,77.81
2023-09-27T05:24:53.620Z,77.78
2023-09-27T05:25:53.639Z,77.77
2023-09-27T05:26:53.607Z,77.58
2023-09-27T05:27:53.665Z,77.58
2023-09-27T05:28:53.784Z,77.70
2023-09-27T05:29:53.568Z,77.69
2023-09-27T05:30:53.583Z,77.78
2023-09-27T05:31:53.546Z,77.79
2023-09-27T05:32:53.547Z,77.50
2023-09-27T05:33:53.567Z,77.59
2023-09-27T05:34:53.503Z,77.43
2023-09-27T05:35:53.482Z,77.63
2023-09-27T05:36:53.453Z,77.70
2023-09-27T05:37:53.451Z,77.60
2023-09-27T05:38:53.607Z,77.54
2023-09-27T05:39:53.418Z,77.62
2023-09-27T05:40:53.414Z,77.28
2023-09-27T05:41:53.395Z,77.43
2023-09-27T05:42:53.420Z,77.51
2023-09-27T05:43:53.351Z,77.60
2023-09-27T05:44:53.344Z,77.87
2023-09-27T05:45:53.388Z,77.50
2023-09-27T05:46:53.348Z,77.65
2023-09-27T05:47:53.404Z,77.75
2023-09-27T05:48:53.440Z,77.96
2023-09-27T05:49:53.281Z,77.72
2023-09-27T05:50:53.269Z,77.79
2023-09-27T05:51:53.254Z,78.00
2023-09-27T05:52:53.280Z,78.28
2023-09-27T05:53:53.312Z,78.24
2023-09-27T05:54:53.197Z,78.46
2023-09-27T05:55:53.221Z,78.66
2023-09-27T05:56:53.185Z,78.61
2023-09-27T05:57:53.242Z,78.59
2023-09-27T05:58:53.349Z,78.59
2023-09-27T05:59:53.163Z,78.53
2023-09-27T06:00:53.126Z,78.51
2023-09-27T06:01:53.758Z,78.54
2023-09-27T06:02:53.554Z,78.64
2023-09-27T06:03:53.152Z,78.71
2023-09-27T06:04:53.066Z,78.67
2023-09-27T06:05:53.074Z,78.66
2023-09-27T06:06:53.057Z,78.50
2023-09-27T06:07:53.041Z,78.49
2023-09-27T06:08:53.285Z,78.69
2023-09-27T06:09:53.004Z,78.84
2023-09-27T06:10:53.000Z,79.07
2023-09-27T06:11:52.989Z,78.65
2023-09-27T06:12:52.959Z,78.68
2023-09-27T06:13:52.940Z,79.03
2023-09-27T06:14:52.932Z,78.88
2023-09-27T06:15:52.985Z,78.92
2023-09-27T06:16:52.969Z,78.89
2023-09-27T06:17:53.031Z,79.00
2023-09-27T06:18:53.104Z,79.23
2023-09-27T06:19:52.865Z,79.31
2023-09-27T06:20:52.887Z,79.37
2023-09-27T06:21:52.836Z,79.58
2023-09-27T06:22:52.820Z,79.81
2023-09-27T06:23:52.819Z,79.94
2023-09-27T06:24:52.904Z,80.03
2023-09-27T06:25:52.821Z,79.78
2023-09-27T06:26:52.765Z,79.60
2023-09-27T06:27:52.796Z,79.89
2023-09-27T06:28:53.037Z,79.60
2023-09-27T06:29:52.720Z,79.61
2023-09-27T06:30:52.787Z,79.74
2023-09-27T06:31:52.802Z,79.78
2023-09-27T06:32:52.833Z,79.95
2023-09-27T06:33:52.667Z,79.76
2023-09-27T06:34:52.687Z,79.96
2023-09-27T06:35:52.736Z,80.11
2023-09-27T06:36:52.654Z,79.85
2023-09-27T06:37:52.727Z,80.15
2023-09-27T06:38:52.903Z,80.25
2023-09-27T06:39:52.629Z,80.31
2023-09-27T06:40:52.612Z,80.42
2023-09-27T06:41:52.590Z,80.43
2023-09-27T06:42:52.966Z,80.24
2023-09-27T06:43:52.581Z,80.35
2023-09-27T06:44:52.529Z,80.45
2023-09-27T06:45:52.576Z,80.48
2023-09-27T06:46:52.572Z,80.49
2023-09-27T06:47:52.602Z,80.40
2023-09-27T06:48:52.643Z,80.20
2023-09-27T06:49:52.460Z,80.18
2023-09-27T06:50:52.461Z,80.39
2023-09-27T06:51:52.436Z,80.53
2023-09-27T06:52:59.907Z,80.38
2023-09-27T06:53:52.435Z,80.37
2023-09-27T06:54:52.393Z,80.05
2023-09-27T06:55:52.374Z,79.98
2023-09-27T06:56:52.380Z,80.42
2023-09-27T06:57:52.388Z,80.48
2023-09-27T06:58:52.535Z,80.81
2023-09-27T06:59:52.304Z,81.12
2023-09-27T07:00:52.346Z,81.26
2023-09-27T07:01:52.289Z,81.14
2023-09-27T07:02:52.368Z,80.87
2023-09-27T07:03:52.406Z,80.48
2023-09-27T07:04:52.238Z,80.39
2023-09-27T07:05:52.249Z,80.37
2023-09-27T07:06:52.248Z,80.36
2023-09-27T07:07:52.197Z,80.37
2023-09-27T07:08:52.303Z,80.51
2023-09-27T07:09:52.168Z,80.74
2023-09-27T07:10:52.202Z,81.03
2023-09-27T07:11:52.151Z,81.19
2023-09-27T07:12:52.202Z,81.16
2023-09-27T07:13:52.126Z,81.29
2023-09-27T07:14:52.107Z,81.26
2023-09-27T07:15:52.109Z,81.37
2023-09-27T07:17:00.773Z,81.57
2023-09-27T07:17:52.186Z,81.67
2023-09-27T07:18:52.356Z,81.42
2023-09-27T07:19:52.660Z,81.11
2023-09-27T07:20:52.141Z,80.96
2023-09-27T07:21:52.028Z,81.08
2023-09-27T07:22:52.024Z,80.95
2023-09-27T07:23:52.001Z,80.55
2023-09-27T07:24:51.974Z,80.66
2023-09-27T07:25:51.984Z,80.67
2023-09-27T07:26:52.003Z,80.68
2023-09-27T07:27:51.941Z,80.46
2023-09-27T07:28:52.328Z,80.16
2023-09-27T07:29:51.900Z,80.26
2023-09-27T07:30:51.957Z,80.24
2023-09-27T07:31:51.943Z,80.29
2023-09-27T07:32:51.943Z,80.31
2023-09-27T07:33:51.859Z,80.29
2023-09-27T07:34:51.834Z,80.18
2023-09-27T07:35:51.824Z,80.39
2023-09-27T07:36:51.811Z,80.52
2023-09-27T07:37:51.809Z,80.44
2023-09-27T07:38:52.103Z,80.53
2023-09-27T07:39:51.789Z,80.38
2023-09-27T07:40:51.776Z,80.07
2023-09-27T07:41:51.742Z,80.01
2023-09-27T07:42:51.725Z,80.22
2023-09-27T07:43:52.031Z,80.32
2023-09-27T07:44:51.719Z,80.34
2023-09-27T07:45:51.686Z,80.42
2023-09-27T07:46:51.687Z,80.51
2023-09-27T07:47:51.950Z,80.58
2023-09-27T07:48:51.963Z,80.67
2023-09-27T07:49:51.684Z,80.41
2023-09-27T07:50:54.100Z,80.41
2023-09-27T07:51:51.610Z,80.44
2023-09-27T07:52:51.601Z,80.08
2023-09-27T07:53:51.607Z,80.17
2023-09-27T07:54:51.568Z,80.36
2023-09-27T07:55:51.563Z,80.23
2023-09-27T07:56:52.240Z,80.01
2023-09-27T07:57:51.538Z,80.02
2023-09-27T07:58:51.763Z,80.08
2023-09-27T07:59:51.489Z,79.65
2023-09-27T08:00:51.704Z,79.50
2023-09-27T08:01:51.498Z,79.58
2023-09-27T08:02:52.076Z,79.67
2023-09-27T08:03:51.500Z,79.50
2023-09-27T08:04:51.426Z,79.51
2023-09-27T08:05:51.430Z,79.62
2023-09-27T08:06:51.446Z,79.67
2023-09-27T08:07:51.389Z,79.79
2023-09-27T08:08:51.566Z,79.82
2023-09-27T08:09:51.372Z,79.86
2023-09-27T08:10:51.458Z,79.72
2023-09-27T08:11:51.333Z,79.46
2023-09-27T08:12:51.334Z,79.27
2023-09-27T08:13:51.313Z,79.41
2023-09-27T08:14:51.315Z,79.48
2023-09-27T08:15:51.300Z,79.56
2023-09-27T08:16:51.414Z,79.59
2023-09-27T08:17:51.315Z,79.68
2023-09-27T08:18:51.567Z,79.53
2023-09-27T08:19:51.245Z,79.43
2023-09-27T08:20:51.370Z,79.45
2023-09-27T08:21:51.291Z,79.53
2023-09-27T08:22:51.199Z,79.64
2023-09-27T08:23:51.179Z,79.58
2023-09-27T08:24:51.176Z,79.40
2023-09-27T08:25:51.158Z,79.45
2023-09-27T08:26:51.163Z,79.31
2023-09-27T08:27:51.123Z,79.19
2023-09-27T08:28:51.233Z,79.09
2023-09-27T08:29:51.104Z,79.08
2023-09-27T08:30:51.160Z,79.21
2023-09-27T08:31:51.089Z,79.41
2023-09-27T08:32:51.147Z,79.16
2023-09-27T08:33:51.046Z,79.19
2023-09-27T08:34:51.040Z,79.12
2023-09-27T08:35:51.069Z,79.11
2023-09-27T08:36:51.021Z,79.02
2023-09-27T08:37:51.003Z,79.05
2023-09-27T08:38:51.164Z,79.14
2023-09-27T08:39:50.988Z,79.26
2023-09-27T08:40:50.968Z,79.23
2023-09-27T08:41:50.959Z,79.11
2023-09-27T08:42:50.931Z,79.03
2023-09-27T08:43:50.930Z,79.12
2023-09-27T08:44:50.915Z,79.10
2023-09-27T08:45:50.936Z,78.82
2023-09-27T08:46:50.885Z,78.84
2023-09-27T08:47:50.957Z,78.78
2023-09-27T08:48:50.965Z,78.86
2023-09-27T08:49:50.849Z,78.83
2023-09-27T08:50:50.876Z,78.76
2023-09-27T08:51:50.812Z,78.81
2023-09-27T08:52:50.832Z,78.70
2023-09-27T08:53:50.843Z,78.62
2023-09-27T08:54:50.786Z,78.71
2023-09-27T08:55:54.265Z,78.75
2023-09-27T08:56:50.778Z,78.75
2023-09-27T08:57:50.788Z,79.03
2023-09-27T08:58:50.979Z,79.08
2023-09-27T08:59:50.828Z,79.05
2023-09-27T09:00:50.712Z,79.05
2023-09-27T09:01:50.735Z,79.18
2023-09-27T09:02:50.875Z,79.27
2023-09-27T09:03:50.727Z,79.30
2023-09-27T09:04:50.644Z,79.03
2023-09-27T09:05:50.713Z,78.99
2023-09-27T09:06:50.629Z,78.77
2023-09-27T09:07:50.615Z,78.87
2023-09-27T09:08:50.623Z,78.59
2023-09-27T09:09:50.597Z,78.59
2023-09-27T09:10:50.636Z,78.52
2023-09-27T09:11:50.555Z,78.53
2023-09-27T09:12:50.553Z,78.54
2023-09-27T09:13:50.526Z,78.63
2023-09-27T09:14:50.521Z,78.75
2023-09-27T09:15:50.557Z,78.75
2023-09-27T09:16:50.508Z,78.55
2023-09-27T09:17:50.489Z,78.61
2023-09-27T09:18:50.622Z,78.60
2023-09-27T09:19:50.466Z,78.70
2023-09-27T09:20:50.615Z,78.86
2023-09-27T09:21:50.418Z,78.94
2023-09-27T09:22:50.412Z,78.84
2023-09-27T09:23:50.651Z,78.72
2023-09-27T09:24:50.410Z,78.48
2023-09-27T09:25:50.430Z,78.39
2023-09-27T09:26:50.442Z,78.36
2023-09-27T09:27:50.346Z,78.22
2023-09-27T09:28:52.824Z,78.09
2023-09-27T09:29:50.322Z,78.05
2023-09-27T09:30:50.326Z,77.89
2023-09-27T09:31:50.307Z,77.88
2023-09-27T09:32:50.490Z,77.87
2023-09-27T09:33:50.342Z,77.50
2023-09-27T09:34:50.249Z,77.20
2023-09-27T09:35:50.264Z,77.10
2023-09-27T09:36:52.934Z,77.43
2023-09-27T09:37:51.634Z,77.43
2023-09-27T09:38:50.236Z,77.26
2023-09-27T09:39:50.263Z,77.42
2023-09-27T09:40:50.187Z,77.43
2023-09-27T09:41:50.262Z,77.27
2023-09-27T09:42:50.147Z,76.79
2023-09-27T09:43:50.166Z,76.55
2023-09-27T09:44:50.116Z,76.55
2023-09-27T09:45:50.125Z,76.74
2023-09-27T09:46:50.203Z,76.75
2023-09-27T09:47:50.234Z,76.95
2023-09-27T09:48:50.081Z,77.06
2023-09-27T09:49:51.913Z,77.26
2023-09-27T09:50:50.109Z,77.24
2023-09-27T09:51:50.047Z,77.04
2023-09-27T09:52:50.018Z,76.63
2023-09-27T09:53:50.075Z,76.61
2023-09-27T09:56:28.426Z,75.81
2023-09-27T09:57:10.002Z,76.38
2023-09-27T09:58:02.070Z,76.50
2023-09-27T09:59:01.968Z,76.53
2023-09-27T10:00:01.944Z,76.45
2023-09-27T10:01:01.937Z,76.23
2023-09-27T10:02:01.920Z,75.90
2023-09-27T10:03:01.973Z,75.79
2023-09-27T10:04:02.038Z,75.59
2023-09-27T10:05:01.921Z,75.41
2023-09-27T10:06:01.884Z,75.11
2023-09-27T10:07:01.872Z,75.16
2023-09-27T10:08:01.873Z,75.20
2023-09-27T10:09:01.833Z,75.47
2023-09-27T10:10:01.833Z,75.67
2023-09-27T10:11:01.844Z,75.76
2023-09-27T10:12:01.853Z,76.15
2023-09-27T10:13:01.785Z,76.40
2023-09-27T10:14:01.782Z,76.87
2023-09-27T10:15:01.760Z,77.36
2023-09-27T10:16:01.755Z,77.12
2023-09-27T10:17:01.748Z,76.76
2023-09-27T10:18:01.767Z,76.15
2023-09-27T10:19:01.730Z,76.02
2023-09-27T10:20:01.683Z,75.89
2023-09-27T10:21:01.704Z,75.80
2023-09-27T10:22:01.671Z,75.63
2023-09-27T10:23:01.631Z,75.24
2023-09-27T10:24:01.623Z,75.13
2023-09-27T10:25:01.628Z,75.30
2023-09-27T10:26:01.599Z,75.31
2023-09-27T10:27:01.588Z,75.45
2023-09-27T10:28:01.566Z,75.64
2023-09-27T10:29:01.568Z,75.51
2023-09-27T10:30:01.559Z,75.63
2023-09-27T10:31:01.542Z,75.82
2023-09-27T10:32:01.521Z,75.64
2023-09-27T10:33:01.567Z,75.55
2023-09-27T10:34:01.499Z,75.81
2023-09-27T10:35:04.145Z,75.97
2023-09-27T10:36:01.697Z,74.97
2023-09-27T10:37:10.573Z,74.64
2023-09-27T10:38:01.546Z,74.61
2023-09-27T10:39:01.470Z,74.65
2023-09-27T10:40:01.476Z,74.23
2023-09-27T10:41:01.651Z,74.16
2023-09-27T10:42:01.492Z,74.39
2023-09-27T10:43:01.445Z,74.49
2023-09-27T10:44:01.431Z,74.60
2023-09-27T10:45:01.400Z,74.73
2023-09-27T10:46:01.371Z,74.33
2023-09-27T10:47:01.399Z,73.80
2023-09-27T10:48:01.386Z,73.98
2023-09-27T10:49:01.333Z,73.67
2023-09-27T10:50:01.318Z,73.08
2023-09-27T10:51:01.401Z,73.14
2023-09-27T10:52:06.995Z,73.24
2023-09-27T10:53:01.321Z,73.40
2023-09-27T10:54:01.275Z,73.56
2023-09-27T10:55:01.254Z,73.52
2023-09-27T10:56:01.238Z,73.48
2023-09-27T10:57:01.239Z,73.44
2023-09-27T10:58:01.313Z,73.52
2023-09-27T10:59:01.546Z,73.74
2023-09-27T11:00:01.231Z,73.91
2023-09-27T11:01:01.300Z,73.82
2023-09-27T11:02:01.267Z,73.79
2023-09-27T11:03:01.279Z,73.54
2023-09-27T11:04:01.255Z,73.66
2023-09-27T11:05:01.180Z,73.91
2023-09-27T11:06:01.198Z,73.95
2023-09-27T11:07:01.288Z,73.51
2023-09-27T11:08:01.153Z,73.66
2023-09-27T11:09:01.098Z,73.53
2023-09-27T11:10:01.083Z,72.99
2023-09-27T11:11:01.123Z,72.75
2023-09-27T11:12:01.334Z,72.91
2023-09-27T11:13:01.098Z,72.86
2023-09-27T11:14:01.056Z,73.66
2023-09-27T11:15:01.053Z,73.13
2023-09-27T11:16:01.042Z,72.56
2023-09-27T11:17:01.092Z,72.19
2023-09-27T11:18:01.084Z,71.91
2023-09-27T11:19:01.129Z,72.22
2023-09-27T11:20:01.092Z,71.71
2023-09-27T11:21:01.047Z,71.63
2023-09-27T11:22:01.633Z,71.11
2023-09-27T11:23:00.960Z,71.23
2023-09-27T11:24:01.004Z,70.78
2023-09-27T11:25:01.046Z,70.39
2023-09-27T11:26:00.926Z,70.35
2023-09-27T11:27:00.929Z,70.98
2023-09-27T11:28:00.926Z,70.84
2023-09-27T11:29:00.896Z,71.36
2023-09-27T11:30:00.896Z,71.25
2023-09-27T11:31:00.815Z,70.75
2023-09-27T11:32:01.000Z,70.68
2023-09-27T11:33:00.904Z,70.11
2023-09-27T11:34:00.877Z,70.46
2023-09-27T11:35:00.752Z,70.71
2023-09-27T11:36:02.194Z,70.42
2023-09-27T11:37:00.753Z,70.56
2023-09-27T11:38:00.723Z,70.72
2023-09-27T11:39:00.740Z,70.43
2023-09-27T11:40:00.699Z,70.02
2023-09-27T11:41:00.755Z,69.78
2023-09-27T11:42:00.707Z,69.91
2023-09-27T11:43:00.634Z,69.89
2023-09-27T11:44:00.633Z,68.95
2023-09-27T11:45:00.649Z,68.42
2023-09-27T11:46:00.642Z,68.34
2023-09-27T11:47:00.582Z,68.62
2023-09-27T11:48:00.656Z,68.64
2023-09-27T11:49:00.591Z,68.73
2023-09-27T11:50:00.547Z,68.58
2023-09-27T11:51:00.625Z,68.47
2023-09-27T11:52:01.500Z,68.56
2023-09-27T11:53:00.526Z,68.70
2023-09-27T11:54:00.507Z,68.64
2023-09-27T11:55:00.540Z,68.71
2023-09-27T11:56:00.577Z,68.94
2023-09-27T11:57:00.562Z,68.32
2023-09-27T11:58:00.589Z,68.56
2023-09-27T11:59:00.488Z,68.09
2023-09-27T12:00:00.610Z,68.01
2023-09-27T12:01:00.557Z,68.07
2023-09-27T12:02:06.454Z,67.83
2023-09-27T12:03:00.571Z,68.61
2023-09-27T12:04:01.065Z,68.40
2023-09-27T12:05:00.602Z,67.96
2023-09-27T12:06:00.475Z,68.06
2023-09-27T12:07:00.637Z,68.10
2023-09-27T12:08:00.289Z,68.28
2023-09-27T12:09:02.157Z,68.38
2023-09-27T12:10:00.301Z,68.17
2023-09-27T12:11:00.272Z,67.79
2023-09-27T12:12:00.253Z,67.38
2023-09-27T12:13:00.298Z,67.32
2023-09-27T12:14:00.244Z,67.85
2023-09-27T12:15:00.279Z,67.94
2023-09-27T12:16:00.591Z,67.51
2023-09-27T12:17:00.176Z,67.42
2023-09-27T12:18:00.268Z,67.98
2023-09-27T12:19:00.199Z,67.88
2023-09-27T12:20:00.194Z,67.92
2023-09-27T12:21:00.220Z,68.35
2023-09-27T12:22:00.133Z,67.77
2023-09-27T12:23:00.140Z,68.15
2023-09-27T12:24:00.120Z,67.89
2023-09-27T12:25:00.094Z,68.19
2023-09-27T12:26:00.152Z,67.76
2023-09-27T12:27:00.177Z,68.26
2023-09-27T12:28:00.154Z,68.00
2023-09-27T12:29:00.115Z,68.06
2023-09-27T12:30:00.036Z,67.98
2023-09-27T12:31:00.079Z,68.33
2023-09-27T12:32:00.042Z,67.65
2023-09-27T12:33:00.237Z,67.67
2023-09-27T12:34:00.023Z,67.91
2023-09-27T12:34:59.973Z,68.53
2023-09-27T12:35:59.979Z,68.05
2023-09-27T12:37:00.065Z,68.08
2023-09-27T12:38:00.007Z,68.32
2023-09-27T12:38:59.934Z,68.33
2023-09-27T12:40:00.020Z,67.64
2023-09-27T12:40:59.924Z,67.38
2023-09-27T12:41:59.893Z,67.27
2023-09-27T12:42:59.978Z,67.07
2023-09-27T12:43:59.882Z,66.89
2023-09-27T12:44:59.967Z,67.13
2023-09-27T12:45:59.875Z,67.31
2023-09-27T12:46:59.927Z,67.49
2023-09-27T12:48:00.053Z,67.69
2023-09-27T12:48:59.770Z,67.69
2023-09-27T12:50:01.419Z,67.88
2023-09-27T12:50:59.801Z,67.84
2023-09-27T12:51:59.777Z,67.63
2023-09-27T12:52:59.693Z,67.54
2023-09-27T12:53:59.739Z,67.61